Terminal Aerodrome Forecast
Issued by NWS

Home | Current Version | Previous Version | Text Only | Print | Product List | Glossary On
Versions: 1 2 3 4 5 6 7 8 9 10 11 12 13 14 15 16 17 18 19 20 21 22 23 24 25
000
FTUS45 KBOU 312322
TAFAPA
TAF
KAPA 312322Z 0100/0124 03012KT P6SM VCTS SCT030CB BKN050
      TEMPO 0100/0103 5SM -SHRA OVC030
     FM010300 13007KT P6SM SCT025 BKN040
      TEMPO 0103/0106 -SHRA
     FM010600 18007KT P6SM SCT015 BKN030
     FM011000 VRB04KT P6SM VCFG SCT015 BKN020
     FM011500 12006KT P6SM SCT050 SCT080=

USA.gov is the U.S. government's official web portal to all federal, state and local government web resources and services.